createdAt,value
2018-08-24T00:04:39.153Z,19.30
2018-08-24T00:07:08.360Z,19.30
2018-08-24T00:09:37.548Z,19.20
2018-08-24T00:12:07.205Z,19.30
2018-08-24T00:14:36.568Z,19.30
2018-08-24T00:17:10.391Z,19.30
2018-08-24T00:19:39.967Z,19.30
2018-08-24T00:22:09.156Z,19.30
2018-08-24T00:24:39.079Z,19.40
2018-08-24T00:27:08.283Z,19.30
2018-08-24T00:29:37.596Z,19.20
2018-08-24T00:32:06.951Z,19.20
2018-08-24T00:34:36.158Z,19.20
2018-08-24T00:37:06.145Z,19.30
2018-08-24T00:39:35.225Z,19.30
2018-08-24T00:42:04.489Z,19.20
2018-08-24T00:44:33.600Z,19.20
2018-08-24T00:47:03.306Z,19.20
2018-08-24T00:49:32.485Z,19.20
2018-08-24T00:52:01.835Z,19.20
2018-08-24T00:54:31.878Z,19.20
2018-08-24T00:57:01.554Z,19.20
2018-08-24T00:59:30.934Z,19.20
2018-08-24T01:02:00.503Z,19.30
2018-08-24T01:04:34.309Z,19.30
2018-08-24T01:07:09.065Z,19.30
2018-08-24T01:09:39.636Z,19.30
2018-08-24T01:12:11.038Z,19.30
2018-08-24T01:14:42.221Z,19.40
2018-08-24T01:17:16.674Z,19.40
2018-08-24T01:19:46.545Z,19.30
2018-08-24T01:22:15.971Z,19.30
2018-08-24T01:24:45.807Z,19.20
2018-08-24T01:27:14.943Z,19.00
2018-08-24T01:29:44.275Z,18.90
2018-08-24T01:32:14.509Z,18.70
2018-08-24T01:34:43.687Z,18.70
2018-08-24T01:37:13.188Z,18.80
2018-08-24T01:39:42.901Z,18.80
2018-08-24T01:42:12.287Z,18.80
2018-08-24T01:44:41.559Z,18.80
2018-08-24T01:47:10.949Z,18.90
2018-08-24T01:49:40.261Z,18.80
2018-08-24T01:52:10.042Z,18.80
2018-08-24T01:54:39.752Z,18.80
2018-08-24T01:57:09.274Z,18.80
2018-08-24T01:59:39.450Z,18.60
2018-08-24T02:02:08.979Z,18.50
2018-08-24T02:04:38.673Z,18.40
2018-08-24T02:07:08.222Z,18.40
2018-08-24T02:09:37.397Z,18.50
2018-08-24T02:12:11.035Z,18.50
2018-08-24T02:14:40.637Z,18.50
2018-08-24T02:17:15.274Z,18.50
2018-08-24T02:19:49.908Z,18.50
2018-08-24T02:22:19.715Z,18.50
2018-08-24T02:24:49.962Z,18.50
2018-08-24T02:27:19.637Z,18.40
2018-08-24T02:29:52.260Z,18.50
2018-08-24T02:32:22.203Z,18.40
2018-08-24T02:34:52.190Z,18.50
2018-08-24T02:37:21.970Z,18.40
2018-08-24T02:39:51.360Z,18.30
2018-08-24T02:42:20.541Z,18.40
2018-08-24T02:44:49.757Z,18.40
2018-08-24T02:47:18.932Z,18.40
2018-08-24T02:49:48.363Z,18.30
2018-08-24T02:52:17.841Z,18.30
2018-08-24T02:54:47.140Z,18.20
2018-08-24T02:57:16.341Z,18.20
2018-08-24T02:59:46.009Z,18.10
2018-08-24T03:02:15.306Z,18.20
2018-08-24T03:04:44.985Z,18.20
2018-08-24T03:07:14.425Z,18.30
2018-08-24T03:09:44.197Z,18.30
2018-08-24T03:12:13.531Z,18.20
2018-08-24T03:14:42.592Z,18.10
2018-08-24T03:17:17.371Z,18.10
2018-08-24T03:19:46.731Z,18.20
2018-08-24T03:22:16.018Z,18.20
2018-08-24T03:24:45.578Z,18.30
2018-08-24T03:27:14.872Z,18.30
2018-08-24T03:29:44.284Z,18.30
2018-08-24T03:32:13.926Z,18.20
2018-08-24T03:34:43.306Z,18.20
2018-08-24T03:37:12.520Z,18.30
2018-08-24T03:39:41.798Z,18.30
2018-08-24T03:42:11.360Z,18.40
2018-08-24T03:44:41.038Z,18.30
2018-08-24T03:47:10.500Z,18.40
2018-08-24T03:49:39.764Z,18.30
2018-08-24T03:52:09.106Z,18.30
2018-08-24T03:54:38.658Z,18.20
2018-08-24T03:57:07.778Z,18.20
2018-08-24T03:59:36.866Z,18.10
2018-08-24T04:02:09.084Z,18.10
2018-08-24T04:04:38.576Z,18.10
2018-08-24T04:07:07.917Z,18.10
2018-08-24T04:09:37.283Z,18.00
2018-08-24T04:12:06.592Z,18.00
2018-08-24T04:14:36.469Z,18.00
2018-08-24T04:17:11.691Z,17.90
2018-08-24T04:19:41.659Z,18.00
2018-08-24T04:22:12.157Z,17.90
2018-08-24T04:24:41.993Z,18.10
2018-08-24T04:27:11.158Z,18.00
2018-08-24T04:29:40.985Z,17.90
2018-08-24T04:32:10.286Z,17.90
2018-08-24T04:34:39.477Z,17.80
2018-08-24T04:37:08.803Z,17.70
2018-08-24T04:39:38.413Z,17.80
2018-08-24T04:42:07.926Z,17.70
2018-08-24T04:44:37.337Z,17.70
2018-08-24T04:47:06.887Z,17.80
2018-08-24T04:49:36.078Z,17.80
2018-08-24T04:52:05.614Z,17.80
2018-08-24T04:54:35.070Z,17.80
2018-08-24T04:57:04.430Z,17.80
2018-08-24T04:59:33.753Z,17.80
2018-08-24T05:02:03.319Z,17.80
2018-08-24T05:04:32.547Z,17.80
2018-08-24T05:07:01.869Z,17.70
2018-08-24T05:09:31.233Z,17.80
2018-08-24T05:12:00.785Z,17.70
2018-08-24T05:14:29.956Z,17.70
2018-08-24T05:16:59.221Z,17.70
2018-08-24T05:19:28.395Z,17.70
2018-08-24T05:21:57.956Z,17.70
2018-08-24T05:24:27.855Z,17.70
2018-08-24T05:26:57.667Z,17.70
2018-08-24T05:29:27.562Z,17.80
2018-08-24T05:31:57.150Z,17.80
2018-08-24T05:34:26.684Z,17.90
2018-08-24T05:36:56.212Z,17.90
2018-08-24T05:39:25.714Z,17.80
2018-08-24T05:41:55.235Z,17.80
2018-08-24T05:44:24.998Z,17.70
2018-08-24T05:46:54.886Z,17.60
2018-08-24T05:49:24.759Z,17.50
2018-08-24T05:51:54.590Z,17.60
2018-08-24T05:54:24.294Z,17.70
2018-08-24T05:56:54.183Z,17.70
2018-08-24T05:59:23.869Z,17.70
2018-08-24T06:01:53.588Z,17.80
2018-08-24T06:04:23.616Z,17.90
2018-08-24T06:06:54.686Z,17.90
2018-08-24T06:09:24.754Z,17.80
2018-08-24T06:11:54.763Z,17.80
2018-08-24T06:14:24.244Z,17.90
2018-08-24T06:16:59.490Z,18.00
2018-08-24T06:19:29.268Z,17.90
2018-08-24T06:21:59.246Z,17.90
2018-08-24T06:24:29.250Z,17.90
2018-08-24T06:26:59.230Z,17.90
2018-08-24T06:29:29.300Z,17.90
2018-08-24T06:31:59.071Z,17.80
2018-08-24T06:34:29.136Z,17.80
2018-08-24T06:36:59.282Z,17.90
2018-08-24T06:39:29.130Z,18.00
2018-08-24T06:41:58.730Z,18.10
2018-08-24T06:44:28.365Z,18.20
2018-08-24T06:46:58.409Z,18.20
2018-08-24T06:49:28.377Z,18.20
2018-08-24T06:51:58.373Z,18.20
2018-08-24T06:54:28.461Z,18.30
2018-08-24T06:56:58.812Z,18.20
2018-08-24T06:59:29.062Z,18.30
2018-08-24T07:01:59.797Z,18.20
2018-08-24T07:04:29.871Z,18.20
2018-08-24T07:06:59.865Z,18.20
2018-08-24T07:09:30.015Z,18.20
2018-08-24T07:12:00.194Z,18.30
2018-08-24T07:14:30.296Z,18.30
2018-08-24T07:17:01.577Z,18.30
2018-08-24T07:19:32.254Z,18.20
2018-08-24T07:22:02.291Z,18.20
2018-08-24T07:24:32.455Z,18.10
2018-08-24T07:27:02.907Z,18.10
2018-08-24T07:29:33.291Z,18.10
2018-08-24T07:32:03.127Z,18.20
2018-08-24T07:34:33.480Z,18.20
2018-08-24T07:37:03.367Z,18.10
2018-08-24T07:39:33.247Z,18.00
2018-08-24T07:42:04.010Z,17.90
2018-08-24T07:44:38.932Z,17.90
2018-08-24T07:47:09.039Z,17.90
2018-08-24T07:49:39.327Z,18.00
2018-08-24T07:52:09.406Z,18.00
2018-08-24T07:54:39.408Z,18.10
2018-08-24T07:57:09.701Z,18.00
2018-08-24T07:59:39.662Z,18.00
2018-08-24T08:02:09.560Z,17.90
2018-08-24T08:04:39.466Z,18.10
2018-08-24T08:07:09.499Z,18.10
2018-08-24T08:09:40.095Z,18.20
2018-08-24T08:12:10.197Z,18.30
2018-08-24T08:14:44.336Z,18.40
2018-08-24T08:17:14.569Z,18.60
2018-08-24T08:19:44.648Z,18.70
2018-08-24T08:22:14.593Z,18.90
2018-08-24T08:24:44.655Z,19.00
2018-08-24T08:27:15.010Z,19.10
2018-08-24T08:29:50.295Z,19.10
2018-08-24T08:32:20.443Z,19.20
2018-08-24T08:34:52.795Z,19.20
2018-08-24T08:37:23.976Z,19.10
2018-08-24T08:39:58.811Z,18.90
2018-08-24T08:42:29.798Z,18.80
2018-08-24T08:45:00.410Z,18.80
2018-08-24T08:47:30.947Z,18.60
2018-08-24T08:50:01.474Z,18.60
2018-08-24T08:52:31.849Z,18.60
2018-08-24T08:55:01.973Z,18.60
2018-08-24T08:57:32.316Z,18.70
2018-08-24T09:00:02.813Z,18.70
2018-08-24T09:02:33.204Z,18.70
2018-08-24T09:05:03.336Z,18.80
2018-08-24T09:07:33.496Z,18.80
2018-08-24T09:10:03.404Z,18.80
2018-08-24T09:12:33.688Z,18.80
2018-08-24T09:15:03.894Z,18.80
2018-08-24T09:17:39.196Z,18.70
2018-08-24T09:20:14.580Z,18.60
2018-08-24T09:22:49.605Z,18.60
2018-08-24T09:25:24.976Z,18.70
2018-08-24T09:28:00.279Z,18.70
2018-08-24T09:30:34.502Z,18.70
2018-08-24T09:33:04.427Z,18.80
2018-08-24T09:35:34.376Z,18.70
2018-08-24T09:38:04.844Z,18.80
2018-08-24T09:40:39.943Z,18.80
2018-08-24T09:43:15.297Z,18.80
2018-08-24T09:45:45.532Z,18.80
2018-08-24T09:48:20.788Z,18.90
2018-08-24T09:50:56.026Z,19.10
2018-08-24T09:53:30.868Z,19.20
2018-08-24T09:56:00.869Z,19.30
2018-08-24T09:58:31.123Z,19.40
2018-08-24T10:01:06.230Z,19.30
2018-08-24T10:03:41.094Z,19.40
2018-08-24T10:06:15.809Z,19.50
2018-08-24T10:08:48.676Z,19.50
2018-08-24T10:11:18.056Z,19.60
2018-08-24T10:13:47.566Z,19.70
2018-08-24T10:16:17.315Z,19.70
2018-08-24T10:18:46.892Z,19.80
2018-08-24T10:21:16.592Z,20.10
2018-08-24T10:23:46.001Z,20.50
2018-08-24T10:26:15.753Z,21.10
2018-08-24T10:28:45.625Z,21.20
2018-08-24T10:31:15.317Z,21.10
2018-08-24T10:33:44.970Z,20.80
2018-08-24T10:36:14.785Z,20.50
2018-08-24T10:38:44.253Z,20.90
2018-08-24T10:41:13.660Z,21.10
2018-08-24T10:43:43.219Z,20.70
2018-08-24T10:46:12.651Z,20.00
2018-08-24T10:48:41.994Z,19.50
2018-08-24T10:51:11.394Z,19.00
2018-08-24T10:53:40.681Z,18.30
2018-08-24T10:56:10.220Z,18.00
2018-08-24T10:58:40.066Z,17.70
2018-08-24T11:01:09.930Z,17.40
2018-08-24T11:03:39.308Z,17.20
2018-08-24T11:06:08.464Z,17.10
2018-08-24T11:08:37.670Z,17.10
2018-08-24T11:11:07.009Z,17.10
2018-08-24T11:13:36.599Z,17.00
2018-08-24T11:16:06.261Z,17.00
2018-08-24T11:18:35.734Z,17.00
2018-08-24T11:21:05.006Z,16.90
2018-08-24T11:23:34.256Z,16.80
2018-08-24T11:26:03.828Z,16.50
2018-08-24T11:28:33.056Z,16.50
2018-08-24T11:31:02.634Z,16.70
2018-08-24T11:33:31.898Z,16.80
2018-08-24T11:36:01.245Z,17.50
2018-08-24T11:38:30.462Z,18.00
2018-08-24T11:40:59.655Z,18.60
2018-08-24T11:43:29.070Z,19.00
2018-08-24T11:45:58.374Z,19.40
2018-08-24T11:48:28.529Z,19.90
2018-08-24T11:50:59.161Z,20.00
2018-08-24T11:53:28.836Z,20.10
2018-08-24T11:55:58.267Z,20.40
2018-08-24T11:58:27.892Z,20.30
2018-08-24T12:00:57.355Z,20.40
2018-08-24T12:03:26.653Z,20.60
2018-08-24T12:05:55.691Z,20.90
2018-08-24T12:08:25.018Z,20.90
2018-08-24T12:10:54.240Z,20.90
2018-08-24T12:13:23.552Z,21.00
2018-08-24T12:15:52.609Z,21.00
2018-08-24T12:18:21.930Z,21.20
2018-08-24T12:20:51.403Z,21.30
2018-08-24T12:23:21.158Z,21.40
2018-08-24T12:25:50.739Z,21.60
2018-08-24T12:28:20.163Z,21.80
2018-08-24T12:30:49.400Z,21.80
2018-08-24T12:33:18.705Z,21.30
2018-08-24T12:35:47.796Z,20.90
2018-08-24T12:38:16.993Z,20.50
2018-08-24T12:40:46.332Z,20.50
2018-08-24T12:43:15.382Z,20.70
2018-08-24T12:45:44.499Z,20.80
2018-08-24T12:48:13.735Z,20.90
2018-08-24T12:50:42.784Z,21.10
2018-08-24T12:53:12.025Z,21.20
2018-08-24T12:55:41.112Z,21.10
2018-08-24T12:58:10.526Z,21.10
2018-08-24T13:00:40.823Z,21.30
2018-08-24T13:03:10.101Z,21.40
2018-08-24T13:05:39.293Z,21.40
2018-08-24T13:08:08.534Z,21.20
2018-08-24T13:10:38.031Z,21.10
2018-08-24T13:13:07.115Z,21.10
2018-08-24T13:15:36.425Z,21.00
2018-08-24T13:18:05.882Z,20.80
2018-08-24T13:20:35.225Z,20.70
2018-08-24T13:23:04.514Z,20.50
2018-08-24T13:25:33.864Z,20.40
2018-08-24T13:28:03.290Z,20.30
2018-08-24T13:30:32.647Z,19.90
2018-08-24T13:33:01.712Z,19.80
2018-08-24T13:35:30.761Z,19.90
2018-08-24T13:38:00.072Z,20.20
2018-08-24T13:40:29.430Z,20.40
2018-08-24T13:42:58.623Z,20.40
2018-08-24T13:45:27.962Z,20.60
2018-08-24T13:47:57.140Z,20.60
2018-08-24T13:50:26.328Z,20.90
2018-08-24T13:52:55.493Z,21.00
2018-08-24T13:55:24.813Z,21.00
2018-08-24T13:57:55.295Z,21.10
2018-08-24T14:00:26.419Z,21.10
2018-08-24T14:02:56.628Z,21.20
2018-08-24T14:05:26.489Z,21.50
2018-08-24T14:07:56.925Z,21.70
2018-08-24T14:10:27.437Z,21.70
2018-08-24T14:12:57.228Z,21.70
2018-08-24T14:15:27.134Z,21.60
2018-08-24T14:17:56.321Z,21.60
2018-08-24T14:20:25.596Z,21.10
2018-08-24T14:22:55.228Z,21.00
2018-08-24T14:25:24.709Z,21.00
2018-08-24T14:27:54.062Z,21.00
2018-08-24T14:30:23.337Z,21.10
2018-08-24T14:32:52.692Z,21.10
2018-08-24T14:35:21.873Z,21.00
2018-08-24T14:37:51.291Z,20.90
2018-08-24T14:40:20.472Z,21.00
2018-08-24T14:42:49.547Z,21.10
2018-08-24T14:45:18.868Z,21.00
2018-08-24T14:47:48.658Z,20.80
2018-08-24T14:50:18.550Z,20.50
2018-08-24T14:52:47.712Z,20.40
2018-08-24T14:55:16.935Z,20.40
2018-08-24T14:57:46.087Z,20.40
2018-08-24T15:00:15.240Z,20.50
2018-08-24T15:02:44.477Z,20.40
2018-08-24T15:05:13.700Z,20.40
2018-08-24T15:07:43.112Z,20.30
2018-08-24T15:10:12.629Z,20.30
2018-08-24T15:12:41.982Z,20.30
2018-08-24T15:15:11.121Z,20.40
2018-08-24T15:17:40.625Z,20.30
2018-08-24T15:20:10.113Z,20.10
2018-08-24T15:22:39.987Z,20.30
2018-08-24T15:25:09.117Z,20.50
2018-08-24T15:27:38.487Z,20.60
2018-08-24T15:30:07.994Z,20.50
2018-08-24T15:32:37.297Z,20.30
2018-08-24T15:35:07.428Z,20.20
2018-08-24T15:37:36.833Z,19.90
2018-08-24T15:40:07.323Z,20.10
2018-08-24T15:42:36.588Z,20.20
2018-08-24T15:45:06.129Z,19.90
2018-08-24T15:47:35.379Z,19.70
2018-08-24T15:50:05.625Z,19.60
2018-08-24T15:52:34.706Z,19.60
2018-08-24T15:55:04.144Z,19.50
2018-08-24T15:57:33.375Z,19.50
2018-08-24T16:00:03.104Z,19.60
2018-08-24T16:02:32.514Z,19.70
2018-08-24T16:05:01.986Z,19.90
2018-08-24T16:07:31.691Z,19.80
2018-08-24T16:10:01.604Z,19.60
2018-08-24T16:12:32.152Z,19.50
2018-08-24T16:15:01.897Z,19.40
2018-08-24T16:17:32.077Z,19.30
2018-08-24T16:20:02.106Z,19.20
2018-08-24T16:22:31.994Z,19.10
2018-08-24T16:25:01.699Z,19.20
2018-08-24T16:27:33.680Z,19.30
2018-08-24T16:30:03.570Z,19.50
2018-08-24T16:32:33.081Z,19.60
2018-08-24T16:35:02.845Z,19.70
2018-08-24T16:37:32.676Z,19.70
2018-08-24T16:40:02.527Z,19.60
2018-08-24T16:42:32.089Z,19.40
2018-08-24T16:45:01.858Z,19.40
2018-08-24T16:47:31.238Z,19.40
2018-08-24T16:50:00.704Z,19.30
2018-08-24T16:52:30.485Z,19.20
2018-08-24T16:55:00.494Z,19.20
2018-08-24T16:57:30.279Z,19.10
2018-08-24T17:00:01.016Z,19.10
2018-08-24T17:02:31.293Z,19.10
2018-08-24T17:05:01.413Z,19.20
2018-08-24T17:07:31.227Z,19.00
2018-08-24T17:10:01.423Z,18.60
2018-08-24T17:12:31.689Z,18.60
2018-08-24T17:15:02.044Z,18.60
2018-08-24T17:17:31.981Z,18.70
2018-08-24T17:20:02.127Z,18.70
2018-08-24T17:22:32.493Z,18.70
2018-08-24T17:25:02.488Z,18.80
2018-08-24T17:27:32.208Z,18.70
2018-08-24T17:30:02.113Z,18.70
2018-08-24T17:32:32.502Z,18.60
2018-08-24T17:35:02.597Z,18.60
2018-08-24T17:37:32.825Z,18.50
2018-08-24T17:40:02.985Z,18.50
2018-08-24T17:42:32.863Z,18.50
2018-08-24T17:45:02.579Z,18.40
2018-08-24T17:47:32.340Z,18.50
2018-08-24T17:50:02.322Z,18.50
2018-08-24T17:52:32.339Z,18.40
2018-08-24T17:55:03.228Z,18.20
2018-08-24T17:57:33.145Z,18.20
2018-08-24T18:00:03.250Z,18.00
2018-08-24T18:02:33.333Z,18.00
2018-08-24T18:05:03.177Z,18.10
2018-08-24T18:07:32.998Z,18.10
2018-08-24T18:10:02.842Z,18.10
2018-08-24T18:12:32.628Z,18.00
2018-08-24T18:15:02.621Z,17.90
2018-08-24T18:17:32.504Z,17.90
2018-08-24T18:20:02.658Z,17.80
2018-08-24T18:22:32.832Z,17.80
2018-08-24T18:25:02.803Z,17.80
2018-08-24T18:27:32.580Z,17.90
2018-08-24T18:30:02.535Z,17.60
2018-08-24T18:32:32.478Z,17.00
2018-08-24T18:35:02.750Z,16.50
2018-08-24T18:37:32.420Z,16.40
2018-08-24T18:40:02.194Z,16.20
2018-08-24T18:42:32.229Z,16.40
2018-08-24T18:45:02.211Z,16.50
2018-08-24T18:47:32.323Z,16.20
2018-08-24T18:52:31.623Z,16.30
2018-08-24T18:55:08.684Z,16.30
2018-08-24T18:57:38.814Z,16.30
2018-08-24T19:00:08.637Z,16.20
2018-08-24T19:02:38.557Z,16.20
2018-08-24T19:05:08.843Z,16.30
2018-08-24T19:07:38.698Z,16.20
2018-08-24T19:10:08.609Z,16.20
2018-08-24T19:12:38.487Z,16.20
2018-08-24T19:15:08.226Z,16.20
2018-08-24T19:17:43.897Z,16.10
2018-08-24T19:20:18.980Z,15.90
2018-08-24T19:22:50.766Z,15.90
2018-08-24T19:25:20.995Z,15.90
2018-08-24T19:27:55.814Z,15.80
2018-08-24T19:30:31.138Z,15.90
2018-08-24T19:33:00.981Z,15.90
2018-08-24T19:35:31.007Z,15.70
2018-08-24T19:38:01.076Z,15.60
2018-08-24T19:40:36.313Z,15.70
2018-08-24T19:43:06.741Z,15.70
2018-08-24T19:45:36.703Z,15.80
2018-08-24T19:48:11.876Z,15.80
2018-08-24T19:50:42.455Z,15.70
2018-08-24T19:53:12.356Z,15.60
2018-08-24T19:55:43.086Z,15.70
2018-08-24T19:58:18.358Z,15.50
2018-08-24T20:00:48.340Z,15.40
2018-08-24T20:03:18.450Z,15.30
2018-08-24T20:05:53.621Z,15.50
2018-08-24T20:08:28.892Z,15.50
2018-08-24T20:10:58.781Z,15.50
2018-08-24T20:13:29.037Z,15.50
2018-08-24T20:16:04.300Z,15.40
2018-08-24T20:18:34.235Z,15.40
2018-08-24T20:21:04.307Z,15.40
2018-08-24T20:23:34.484Z,15.40
2018-08-24T20:26:04.593Z,15.20
2018-08-24T20:28:34.486Z,15.10
2018-08-24T20:31:03.601Z,15.20
2018-08-24T20:33:33.436Z,15.10
2018-08-24T20:36:02.702Z,15.00
2018-08-24T20:38:31.967Z,14.90
2018-08-24T20:41:01.667Z,14.90
2018-08-24T20:43:30.930Z,15.00
2018-08-24T20:46:00.554Z,15.00
2018-08-24T20:48:30.037Z,15.00
2018-08-24T20:50:59.986Z,15.10
2018-08-24T20:53:30.175Z,15.20
2018-08-24T20:55:59.732Z,15.20
2018-08-24T20:58:29.923Z,15.10
2018-08-24T21:00:59.675Z,15.10
2018-08-24T21:03:29.472Z,14.90
2018-08-24T21:05:58.659Z,14.80
2018-08-24T21:08:28.292Z,14.90
2018-08-24T21:10:58.039Z,14.90
2018-08-24T21:13:27.759Z,14.80
2018-08-24T21:15:57.276Z,14.80
2018-08-24T21:18:26.802Z,14.80
2018-08-24T21:20:55.941Z,14.60
2018-08-24T21:23:25.788Z,14.60
2018-08-24T21:25:55.432Z,14.60
2018-08-24T21:28:25.109Z,14.60
2018-08-24T21:30:55.997Z,14.60
2018-08-24T21:33:25.830Z,14.40
2018-08-24T21:35:54.949Z,14.20
2018-08-24T21:38:24.350Z,14.00
2018-08-24T21:40:53.913Z,14.00
2018-08-24T21:43:23.081Z,14.10
2018-08-24T21:45:53.247Z,14.00
2018-08-24T21:48:23.048Z,13.90
2018-08-24T21:50:52.623Z,13.90
2018-08-24T21:53:21.779Z,14.00
2018-08-24T21:55:51.040Z,13.80
2018-08-24T21:58:20.672Z,13.80
2018-08-24T22:00:50.834Z,13.80
2018-08-24T22:03:20.143Z,13.70
2018-08-24T22:05:49.525Z,13.70
2018-08-24T22:08:19.147Z,13.70
2018-08-24T22:10:49.016Z,13.80
2018-08-24T22:13:18.810Z,13.80
2018-08-24T22:15:48.284Z,13.80
2018-08-24T22:18:17.757Z,13.70
2018-08-24T22:20:47.675Z,13.80
2018-08-24T22:23:17.330Z,13.70
2018-08-24T22:25:47.945Z,13.70
2018-08-24T22:28:17.993Z,13.60
2018-08-24T22:30:47.065Z,13.40
2018-08-24T22:33:16.213Z,13.40
2018-08-24T22:35:45.699Z,13.40
2018-08-24T22:38:15.586Z,13.40
2018-08-24T22:40:44.753Z,13.40
2018-08-24T22:43:19.337Z,13.50
2018-08-24T22:45:48.819Z,13.50
2018-08-24T22:48:18.785Z,13.50
2018-08-24T22:50:47.993Z,13.60
2018-08-24T22:53:18.322Z,13.70
2018-08-24T22:55:48.637Z,13.70
2018-08-24T22:58:18.644Z,13.70
2018-08-24T23:00:47.793Z,13.80
2018-08-24T23:03:17.205Z,13.70
2018-08-24T23:05:46.705Z,13.50
2018-08-24T23:08:16.693Z,13.50
2018-08-24T23:10:46.048Z,13.50
2018-08-24T23:13:15.679Z,13.40
2018-08-24T23:15:45.363Z,13.40
2018-08-24T23:18:15.707Z,13.40
2018-08-24T23:20:45.271Z,13.40
2018-08-24T23:23:14.681Z,13.40
2018-08-24T23:25:43.894Z,13.30
2018-08-24T23:28:13.157Z,13.40
2018-08-24T23:30:42.509Z,13.30
2018-08-24T23:33:12.314Z,13.20
2018-08-24T23:35:42.148Z,13.10
2018-08-24T23:38:12.329Z,13.20
2018-08-24T23:40:41.873Z,13.10
2018-08-24T23:43:11.233Z,13.10
2018-08-24T23:45:40.613Z,13.10
2018-08-24T23:48:10.353Z,13.20
2018-08-24T23:50:39.948Z,13.10
2018-08-24T23:53:09.465Z,13.10
2018-08-24T23:55:38.742Z,13.10
2018-08-24T23:58:07.948Z,13.10
